sensor_id;sensor_type;location;lat;lon;timestamp;P1;durP1;ratioP1;P2;durP2;ratioP2
24401;SDS011;12539;48.808;11.292;2022-10-17T00:00:49;5.53;;;3.42;;
24401;SDS011;12539;48.808;11.292;2022-10-17T00:03:15;3.47;;;3.17;;
24401;SDS011;12539;48.808;11.292;2022-10-17T00:05:42;5.28;;;2.88;;
24401;SDS011;12539;48.808;11.292;2022-10-17T00:08:10;6.88;;;4.07;;
24401;SDS011;12539;48.808;11.292;2022-10-17T00:10:38;4.25;;;3.70;;
24401;SDS011;12539;48.808;11.292;2022-10-17T00:13:04;9.85;;;5.30;;
24401;SDS011;12539;48.808;11.292;2022-10-17T00:15:30;4.45;;;3.45;;
24401;SDS011;12539;48.808;11.292;2022-10-17T00:17:56;8.20;;;3.90;;
24401;SDS011;12539;48.808;11.292;2022-10-17T00:20:22;4.68;;;3.05;;
24401;SDS011;12539;48.808;11.292;2022-10-17T00:22:48;4.13;;;3.75;;
24401;SDS011;12539;48.808;11.292;2022-10-17T00:25:14;4.50;;;3.38;;
24401;SDS011;12539;48.808;11.292;2022-10-17T00:27:40;5.93;;;3.30;;
24401;SDS011;12539;48.808;11.292;2022-10-17T00:30:06;3.40;;;2.78;;
24401;SDS011;12539;48.808;11.292;2022-10-17T00:32:35;6.50;;;3.10;;
24401;SDS011;12539;48.808;11.292;2022-10-17T00:35:01;8.95;;;3.55;;
24401;SDS011;12539;48.808;11.292;2022-10-17T00:37:28;4.53;;;3.55;;
24401;SDS011;12539;48.808;11.292;2022-10-17T00:39:55;4.50;;;3.35;;
24401;SDS011;12539;48.808;11.292;2022-10-17T00:42:20;5.07;;;3.40;;
24401;SDS011;12539;48.808;11.292;2022-10-17T00:47:15;4.68;;;3.33;;
24401;SDS011;12539;48.808;11.292;2022-10-17T00:52:15;5.15;;;3.65;;
24401;SDS011;12539;48.808;11.292;2022-10-17T00:54:44;5.13;;;4.38;;
24401;SDS011;12539;48.808;11.292;2022-10-17T00:57:12;4.47;;;3.75;;
24401;SDS011;12539;48.808;11.292;2022-10-17T00:59:39;4.28;;;3.33;;
24401;SDS011;12539;48.808;11.292;2022-10-17T01:02:10;5.22;;;3.50;;
24401;SDS011;12539;48.808;11.292;2022-10-17T01:04:38;5.13;;;3.78;;
24401;SDS011;12539;48.808;11.292;2022-10-17T01:07:06;6.40;;;4.43;;
24401;SDS011;12539;48.808;11.292;2022-10-17T01:09:32;4.85;;;4.43;;
24401;SDS011;12539;48.808;11.292;2022-10-17T01:17:21;4.72;;;3.95;;
24401;SDS011;12539;48.808;11.292;2022-10-17T01:20:17;4.05;;;3.60;;
24401;SDS011;12539;48.808;11.292;2022-10-17T01:23:15;4.82;;;4.05;;
24401;SDS011;12539;48.808;11.292;2022-10-17T01:31:15;4.22;;;3.20;;
24401;SDS011;12539;48.808;11.292;2022-10-17T01:33:52;5.47;;;3.43;;
24401;SDS011;12539;48.808;11.292;2022-10-17T01:39:14;4.55;;;3.35;;
24401;SDS011;12539;48.808;11.292;2022-10-17T01:44:29;5.95;;;3.90;;
24401;SDS011;12539;48.808;11.292;2022-10-17T01:47:19;4.75;;;3.83;;
24401;SDS011;12539;48.808;11.292;2022-10-17T01:52:19;4.72;;;3.83;;
24401;SDS011;12539;48.808;11.292;2022-10-17T01:54:57;6.00;;;3.80;;
24401;SDS011;12539;48.808;11.292;2022-10-17T01:57:37;4.07;;;3.67;;
24401;SDS011;12539;48.808;11.292;2022-10-17T02:00:08;3.95;;;3.47;;
24401;SDS011;12539;48.808;11.292;2022-10-17T02:02:38;5.82;;;4.13;;
24401;SDS011;12539;48.808;11.292;2022-10-17T02:05:06;5.57;;;3.72;;
24401;SDS011;12539;48.808;11.292;2022-10-17T02:07:32;4.57;;;3.60;;
24401;SDS011;12539;48.808;11.292;2022-10-17T02:09:58;4.28;;;3.88;;
24401;SDS011;12539;48.808;11.292;2022-10-17T02:12:59;5.10;;;3.65;;
24401;SDS011;12539;48.808;11.292;2022-10-17T02:15:45;5.18;;;3.15;;
24401;SDS011;12539;48.808;11.292;2022-10-17T02:18:46;3.70;;;3.38;;
24401;SDS011;12539;48.808;11.292;2022-10-17T02:30:02;6.30;;;4.20;;
24401;SDS011;12539;48.808;11.292;2022-10-17T02:35:03;5.63;;;4.20;;
24401;SDS011;12539;48.808;11.292;2022-10-17T02:37:33;3.88;;;2.72;;
24401;SDS011;12539;48.808;11.292;2022-10-17T02:40:01;4.40;;;3.40;;
24401;SDS011;12539;48.808;11.292;2022-10-17T02:42:29;3.75;;;3.17;;
24401;SDS011;12539;48.808;11.292;2022-10-17T02:44:57;6.40;;;3.78;;
24401;SDS011;12539;48.808;11.292;2022-10-17T02:47:31;5.43;;;3.90;;
24401;SDS011;12539;48.808;11.292;2022-10-17T02:50:01;4.78;;;3.83;;
24401;SDS011;12539;48.808;11.292;2022-10-17T03:00:13;4.22;;;3.22;;
24401;SDS011;12539;48.808;11.292;2022-10-17T03:02:42;3.97;;;3.00;;
24401;SDS011;12539;48.808;11.292;2022-10-17T03:05:10;4.65;;;2.97;;
24401;SDS011;12539;48.808;11.292;2022-10-17T03:07:37;3.90;;;3.60;;
24401;SDS011;12539;48.808;11.292;2022-10-17T03:10:03;5.00;;;3.88;;
24401;SDS011;12539;48.808;11.292;2022-10-17T03:12:29;6.15;;;4.20;;
24401;SDS011;12539;48.808;11.292;2022-10-17T03:14:55;6.07;;;3.60;;
24401;SDS011;12539;48.808;11.292;2022-10-17T03:17:21;5.07;;;3.90;;
24401;SDS011;12539;48.808;11.292;2022-10-17T03:19:46;4.30;;;3.70;;
24401;SDS011;12539;48.808;11.292;2022-10-17T03:22:12;6.18;;;3.78;;
24401;SDS011;12539;48.808;11.292;2022-10-17T03:24:37;5.45;;;4.10;;
24401;SDS011;12539;48.808;11.292;2022-10-17T03:27:03;4.15;;;3.40;;
24401;SDS011;12539;48.808;11.292;2022-10-17T03:29:29;6.03;;;3.92;;
24401;SDS011;12539;48.808;11.292;2022-10-17T03:31:54;5.03;;;3.63;;
24401;SDS011;12539;48.808;11.292;2022-10-17T03:34:20;13.30;;;4.47;;
24401;SDS011;12539;48.808;11.292;2022-10-17T03:36:46;4.07;;;3.15;;
24401;SDS011;12539;48.808;11.292;2022-10-17T03:39:11;4.47;;;3.25;;
24401;SDS011;12539;48.808;11.292;2022-10-17T03:41:37;5.95;;;3.30;;
24401;SDS011;12539;48.808;11.292;2022-10-17T03:44:03;4.25;;;3.63;;
24401;SDS011;12539;48.808;11.292;2022-10-17T03:46:28;4.15;;;3.75;;
24401;SDS011;12539;48.808;11.292;2022-10-17T03:48:54;6.20;;;4.10;;
24401;SDS011;12539;48.808;11.292;2022-10-17T03:51:20;8.90;;;4.68;;
24401;SDS011;12539;48.808;11.292;2022-10-17T03:53:45;6.05;;;4.53;;
24401;SDS011;12539;48.808;11.292;2022-10-17T03:56:12;4.00;;;3.60;;
24401;SDS011;12539;48.808;11.292;2022-10-17T03:58:42;5.47;;;4.13;;
24401;SDS011;12539;48.808;11.292;2022-10-17T04:01:09;6.57;;;3.75;;
24401;SDS011;12539;48.808;11.292;2022-10-17T04:03:36;6.45;;;4.13;;
24401;SDS011;12539;48.808;11.292;2022-10-17T04:06:03;4.53;;;3.90;;
24401;SDS011;12539;48.808;11.292;2022-10-17T04:08:29;4.40;;;4.00;;
24401;SDS011;12539;48.808;11.292;2022-10-17T04:10:59;4.60;;;3.55;;
24401;SDS011;12539;48.808;11.292;2022-10-17T04:13:25;4.97;;;3.90;;
24401;SDS011;12539;48.808;11.292;2022-10-17T04:15:59;4.25;;;3.80;;
24401;SDS011;12539;48.808;11.292;2022-10-17T04:18:28;5.15;;;3.38;;
24401;SDS011;12539;48.808;11.292;2022-10-17T04:20:54;4.78;;;4.20;;
24401;SDS011;12539;48.808;11.292;2022-10-17T04:23:20;4.65;;;4.22;;
24401;SDS011;12539;48.808;11.292;2022-10-17T04:25:46;7.25;;;4.22;;
24401;SDS011;12539;48.808;11.292;2022-10-17T04:28:12;8.20;;;4.88;;
24401;SDS011;12539;48.808;11.292;2022-10-17T04:30:38;6.07;;;4.57;;
24401;SDS011;12539;48.808;11.292;2022-10-17T04:33:04;5.30;;;4.13;;
24401;SDS011;12539;48.808;11.292;2022-10-17T04:35:30;5.15;;;4.50;;
24401;SDS011;12539;48.808;11.292;2022-10-17T04:37:55;4.90;;;3.72;;
24401;SDS011;12539;48.808;11.292;2022-10-17T04:40:21;6.72;;;3.70;;
24401;SDS011;12539;48.808;11.292;2022-10-17T04:42:47;3.92;;;3.40;;
24401;SDS011;12539;48.808;11.292;2022-10-17T04:45:12;5.05;;;3.80;;
24401;SDS011;12539;48.808;11.292;2022-10-17T04:47:38;41.72;;;12.23;;
24401;SDS011;12539;48.808;11.292;2022-10-17T04:50:04;42.20;;;16.77;;
24401;SDS011;12539;48.808;11.292;2022-10-17T04:52:30;46.97;;;17.70;;
24401;SDS011;12539;48.808;11.292;2022-10-17T04:54:56;33.45;;;15.68;;
24401;SDS011;12539;48.808;11.292;2022-10-17T04:57:22;32.33;;;11.55;;
24401;SDS011;12539;48.808;11.292;2022-10-17T04:59:49;47.25;;;18.08;;
24401;SDS011;12539;48.808;11.292;2022-10-17T05:02:15;44.53;;;15.10;;
24401;SDS011;12539;48.808;11.292;2022-10-17T05:04:41;37.78;;;12.95;;
24401;SDS011;12539;48.808;11.292;2022-10-17T05:07:06;28.75;;;11.85;;
24401;SDS011;12539;48.808;11.292;2022-10-17T05:09:32;29.40;;;10.18;;
24401;SDS011;12539;48.808;11.292;2022-10-17T05:11:58;19.67;;;7.35;;
24401;SDS011;12539;48.808;11.292;2022-10-17T05:14:23;27.23;;;9.38;;
24401;SDS011;12539;48.808;11.292;2022-10-17T05:16:49;37.85;;;12.50;;
24401;SDS011;12539;48.808;11.292;2022-10-17T05:19:15;17.58;;;7.38;;
24401;SDS011;12539;48.808;11.292;2022-10-17T05:21:42;15.68;;;7.55;;
24401;SDS011;12539;48.808;11.292;2022-10-17T05:24:08;21.35;;;6.82;;
24401;SDS011;12539;48.808;11.292;2022-10-17T05:26:35;17.45;;;8.23;;
24401;SDS011;12539;48.808;11.292;2022-10-17T05:29:01;18.63;;;9.23;;
24401;SDS011;12539;48.808;11.292;2022-10-17T05:31:28;19.25;;;8.80;;
24401;SDS011;12539;48.808;11.292;2022-10-17T05:33:54;33.20;;;12.00;;
24401;SDS011;12539;48.808;11.292;2022-10-17T05:36:20;24.95;;;12.00;;
24401;SDS011;12539;48.808;11.292;2022-10-17T05:38:49;25.40;;;8.75;;
24401;SDS011;12539;48.808;11.292;2022-10-17T05:41:16;16.80;;;8.97;;
24401;SDS011;12539;48.808;11.292;2022-10-17T05:43:42;24.95;;;9.60;;
24401;SDS011;12539;48.808;11.292;2022-10-17T05:46:08;15.68;;;7.80;;
24401;SDS011;12539;48.808;11.292;2022-10-17T05:48:34;18.58;;;7.35;;
24401;SDS011;12539;48.808;11.292;2022-10-17T05:51:00;12.73;;;5.80;;
24401;SDS011;12539;48.808;11.292;2022-10-17T05:53:32;12.25;;;5.97;;
24401;SDS011;12539;48.808;11.292;2022-10-17T05:55:59;15.07;;;7.07;;
24401;SDS011;12539;48.808;11.292;2022-10-17T05:58:27;15.45;;;7.72;;
24401;SDS011;12539;48.808;11.292;2022-10-17T06:00:56;12.38;;;6.43;;
24401;SDS011;12539;48.808;11.292;2022-10-17T06:03:26;12.35;;;7.40;;
24401;SDS011;12539;48.808;11.292;2022-10-17T06:05:52;12.75;;;6.90;;
24401;SDS011;12539;48.808;11.292;2022-10-17T06:08:18;20.40;;;8.50;;
24401;SDS011;12539;48.808;11.292;2022-10-17T06:10:47;13.80;;;8.02;;
24401;SDS011;12539;48.808;11.292;2022-10-17T06:13:15;11.95;;;7.70;;
24401;SDS011;12539;48.808;11.292;2022-10-17T06:15:41;13.02;;;7.97;;
24401;SDS011;12539;48.808;11.292;2022-10-17T06:18:07;14.25;;;7.10;;
24401;SDS011;12539;48.808;11.292;2022-10-17T06:20:32;13.43;;;6.72;;
24401;SDS011;12539;48.808;11.292;2022-10-17T06:22:58;13.15;;;7.88;;
24401;SDS011;12539;48.808;11.292;2022-10-17T06:25:23;11.35;;;6.82;;
24401;SDS011;12539;48.808;11.292;2022-10-17T06:27:49;9.18;;;5.93;;
24401;SDS011;12539;48.808;11.292;2022-10-17T06:30:15;10.60;;;5.90;;
24401;SDS011;12539;48.808;11.292;2022-10-17T06:32:40;10.30;;;6.57;;
24401;SDS011;12539;48.808;11.292;2022-10-17T06:35:06;12.63;;;7.57;;
24401;SDS011;12539;48.808;11.292;2022-10-17T06:37:32;12.52;;;7.20;;
24401;SDS011;12539;48.808;11.292;2022-10-17T06:39:58;12.50;;;8.95;;
24401;SDS011;12539;48.808;11.292;2022-10-17T06:42:24;12.20;;;7.22;;
24401;SDS011;12539;48.808;11.292;2022-10-17T06:44:49;12.88;;;7.95;;
24401;SDS011;12539;48.808;11.292;2022-10-17T06:47:15;10.57;;;6.18;;
24401;SDS011;12539;48.808;11.292;2022-10-17T06:49:41;11.50;;;6.68;;
24401;SDS011;12539;48.808;11.292;2022-10-17T06:52:06;11.43;;;5.95;;
24401;SDS011;12539;48.808;11.292;2022-10-17T06:54:33;11.45;;;6.22;;
24401;SDS011;12539;48.808;11.292;2022-10-17T06:56:59;11.05;;;6.22;;
24401;SDS011;12539;48.808;11.292;2022-10-17T06:59:25;15.95;;;6.28;;
24401;SDS011;12539;48.808;11.292;2022-10-17T07:01:50;11.68;;;5.78;;
24401;SDS011;12539;48.808;11.292;2022-10-17T07:04:16;9.20;;;5.65;;
24401;SDS011;12539;48.808;11.292;2022-10-17T07:06:42;9.50;;;5.45;;
24401;SDS011;12539;48.808;11.292;2022-10-17T07:09:08;9.98;;;6.25;;
24401;SDS011;12539;48.808;11.292;2022-10-17T07:11:33;11.60;;;6.05;;
24401;SDS011;12539;48.808;11.292;2022-10-17T07:13:59;9.10;;;5.20;;
24401;SDS011;12539;48.808;11.292;2022-10-17T07:16:26;10.25;;;6.38;;
24401;SDS011;12539;48.808;11.292;2022-10-17T07:18:52;17.17;;;7.93;;
24401;SDS011;12539;48.808;11.292;2022-10-17T07:21:18;12.15;;;5.82;;
24401;SDS011;12539;48.808;11.292;2022-10-17T07:23:44;11.35;;;6.00;;
24401;SDS011;12539;48.808;11.292;2022-10-17T07:26:12;17.50;;;6.55;;
24401;SDS011;12539;48.808;11.292;2022-10-17T07:28:40;30.45;;;7.22;;
24401;SDS011;12539;48.808;11.292;2022-10-17T07:31:11;41.58;;;8.98;;
24401;SDS011;12539;48.808;11.292;2022-10-17T07:33:39;38.15;;;6.82;;
24401;SDS011;12539;48.808;11.292;2022-10-17T07:36:05;47.15;;;7.43;;
24401;SDS011;12539;48.808;11.292;2022-10-17T07:38:31;44.33;;;8.13;;
24401;SDS011;12539;48.808;11.292;2022-10-17T07:40:59;15.45;;;5.50;;
24401;SDS011;12539;48.808;11.292;2022-10-17T07:43:26;60.70;;;8.60;;
24401;SDS011;12539;48.808;11.292;2022-10-17T07:45:53;61.42;;;10.38;;
24401;SDS011;12539;48.808;11.292;2022-10-17T07:48:19;16.35;;;4.97;;
24401;SDS011;12539;48.808;11.292;2022-10-17T07:50:46;25.00;;;6.88;;
24401;SDS011;12539;48.808;11.292;2022-10-17T07:53:12;35.60;;;7.75;;
24401;SDS011;12539;48.808;11.292;2022-10-17T07:55:39;87.07;;;10.45;;
24401;SDS011;12539;48.808;11.292;2022-10-17T07:58:05;43.42;;;7.57;;
24401;SDS011;12539;48.808;11.292;2022-10-17T08:00:32;53.25;;;8.38;;
24401;SDS011;12539;48.808;11.292;2022-10-17T08:02:58;42.55;;;8.80;;
24401;SDS011;12539;48.808;11.292;2022-10-17T08:05:24;29.45;;;6.75;;
24401;SDS011;12539;48.808;11.292;2022-10-17T08:07:50;35.53;;;8.43;;
24401;SDS011;12539;48.808;11.292;2022-10-17T08:10:16;17.40;;;5.90;;
24401;SDS011;12539;48.808;11.292;2022-10-17T08:12:42;37.58;;;7.03;;
24401;SDS011;12539;48.808;11.292;2022-10-17T08:15:11;21.50;;;5.45;;
24401;SDS011;12539;48.808;11.292;2022-10-17T08:17:37;41.42;;;8.98;;
24401;SDS011;12539;48.808;11.292;2022-10-17T08:20:03;17.65;;;6.63;;
24401;SDS011;12539;48.808;11.292;2022-10-17T08:22:30;38.25;;;8.80;;
24401;SDS011;12539;48.808;11.292;2022-10-17T08:24:56;31.00;;;9.70;;
24401;SDS011;12539;48.808;11.292;2022-10-17T08:27:22;36.17;;;8.52;;
24401;SDS011;12539;48.808;11.292;2022-10-17T08:29:49;24.27;;;5.93;;
24401;SDS011;12539;48.808;11.292;2022-10-17T08:32:21;27.65;;;6.55;;
24401;SDS011;12539;48.808;11.292;2022-10-17T08:34:49;30.25;;;7.43;;
24401;SDS011;12539;48.808;11.292;2022-10-17T08:37:16;23.88;;;8.05;;
24401;SDS011;12539;48.808;11.292;2022-10-17T08:39:42;19.83;;;7.15;;
24401;SDS011;12539;48.808;11.292;2022-10-17T08:42:18;23.88;;;9.32;;
24401;SDS011;12539;48.808;11.292;2022-10-17T08:47:35;14.02;;;5.45;;
24401;SDS011;12539;48.808;11.292;2022-10-17T08:50:04;20.45;;;7.70;;
24401;SDS011;12539;48.808;11.292;2022-10-17T08:52:37;33.67;;;8.40;;
24401;SDS011;12539;48.808;11.292;2022-10-17T08:55:14;22.92;;;7.25;;
24401;SDS011;12539;48.808;11.292;2022-10-17T08:57:49;22.90;;;8.48;;
24401;SDS011;12539;48.808;11.292;2022-10-17T09:00:19;7.68;;;6.15;;
24401;SDS011;12539;48.808;11.292;2022-10-17T09:02:52;12.43;;;9.18;;
24401;SDS011;12539;48.808;11.292;2022-10-17T09:05:43;9.27;;;6.65;;
24401;SDS011;12539;48.808;11.292;2022-10-17T09:10:57;8.32;;;6.93;;
24401;SDS011;12539;48.808;11.292;2022-10-17T09:13:58;12.63;;;7.68;;
24401;SDS011;12539;48.808;11.292;2022-10-17T09:19:18;6.70;;;5.97;;
24401;SDS011;12539;48.808;11.292;2022-10-17T09:22:02;7.90;;;5.20;;
24401;SDS011;12539;48.808;11.292;2022-10-17T09:27:15;8.48;;;7.68;;
24401;SDS011;12539;48.808;11.292;2022-10-17T09:29:49;9.57;;;6.55;;
24401;SDS011;12539;48.808;11.292;2022-10-17T09:32:23;5.88;;;5.22;;
24401;SDS011;12539;48.808;11.292;2022-10-17T09:34:50;7.28;;;5.78;;
24401;SDS011;12539;48.808;11.292;2022-10-17T09:37:17;8.35;;;7.38;;
24401;SDS011;12539;48.808;11.292;2022-10-17T09:39:43;7.53;;;6.65;;
24401;SDS011;12539;48.808;11.292;2022-10-17T09:42:14;11.43;;;8.30;;
24401;SDS011;12539;48.808;11.292;2022-10-17T09:45:17;8.40;;;7.10;;
24401;SDS011;12539;48.808;11.292;2022-10-17T09:47:42;11.57;;;8.02;;
24401;SDS011;12539;48.808;11.292;2022-10-17T09:50:19;7.95;;;6.10;;
24401;SDS011;12539;48.808;11.292;2022-10-17T09:52:54;9.18;;;7.28;;
24401;SDS011;12539;48.808;11.292;2022-10-17T09:55:28;7.07;;;5.38;;
24401;SDS011;12539;48.808;11.292;2022-10-17T09:58:15;8.82;;;6.95;;
24401;SDS011;12539;48.808;11.292;2022-10-17T10:00:42;7.57;;;6.60;;
24401;SDS011;12539;48.808;11.292;2022-10-17T10:11:03;7.57;;;4.68;;
24401;SDS011;12539;48.808;11.292;2022-10-17T10:13:32;10.05;;;8.50;;
24401;SDS011;12539;48.808;11.292;2022-10-17T10:16:15;6.95;;;6.35;;
24401;SDS011;12539;48.808;11.292;2022-10-17T10:18:43;7.53;;;6.78;;
24401;SDS011;12539;48.808;11.292;2022-10-17T10:21:11;7.43;;;6.70;;
24401;SDS011;12539;48.808;11.292;2022-10-17T10:23:44;35.70;;;18.88;;
24401;SDS011;12539;48.808;11.292;2022-10-17T10:26:38;24.58;;;12.90;;
24401;SDS011;12539;48.808;11.292;2022-10-17T10:34:48;16.30;;;8.65;;
24401;SDS011;12539;48.808;11.292;2022-10-17T10:37:18;19.48;;;8.98;;
24401;SDS011;12539;48.808;11.292;2022-10-17T10:39:46;15.05;;;9.95;;
24401;SDS011;12539;48.808;11.292;2022-10-17T10:42:32;14.88;;;9.00;;
24401;SDS011;12539;48.808;11.292;2022-10-17T10:47:52;16.88;;;10.02;;
24401;SDS011;12539;48.808;11.292;2022-10-17T10:53:24;17.20;;;12.63;;
24401;SDS011;12539;48.808;11.292;2022-10-17T11:01:59;13.70;;;8.35;;
24401;SDS011;12539;48.808;11.292;2022-10-17T11:04:27;15.93;;;10.83;;
24401;SDS011;12539;48.808;11.292;2022-10-17T11:07:15;14.13;;;8.82;;
24401;SDS011;12539;48.808;11.292;2022-10-17T11:10:09;14.27;;;11.18;;
24401;SDS011;12539;48.808;11.292;2022-10-17T11:26:02;11.45;;;8.25;;
24401;SDS011;12539;48.808;11.292;2022-10-17T11:28:32;13.43;;;8.65;;
24401;SDS011;12539;48.808;11.292;2022-10-17T11:36:15;15.13;;;10.25;;
24401;SDS011;12539;48.808;11.292;2022-10-17T11:38:46;8.50;;;5.18;;
24401;SDS011;12539;48.808;11.292;2022-10-17T11:41:21;8.93;;;8.02;;
24401;SDS011;12539;48.808;11.292;2022-10-17T11:43:58;11.05;;;9.55;;
24401;SDS011;12539;48.808;11.292;2022-10-17T11:46:28;11.45;;;8.60;;
24401;SDS011;12539;48.808;11.292;2022-10-17T11:51:30;11.70;;;8.70;;
24401;SDS011;12539;48.808;11.292;2022-10-17T11:54:13;11.55;;;8.57;;
24401;SDS011;12539;48.808;11.292;2022-10-17T12:02:29;13.85;;;10.75;;
24401;SDS011;12539;48.808;11.292;2022-10-17T12:18:44;11.38;;;7.43;;
24401;SDS011;12539;48.808;11.292;2022-10-17T12:24:39;11.50;;;8.80;;
24401;SDS011;12539;48.808;11.292;2022-10-17T12:27:42;9.88;;;7.28;;
24401;SDS011;12539;48.808;11.292;2022-10-17T12:30:17;13.05;;;8.55;;
24401;SDS011;12539;48.808;11.292;2022-10-17T12:35:46;28.45;;;11.32;;
24401;SDS011;12539;48.808;11.292;2022-10-17T12:38:18;25.83;;;12.02;;
24401;SDS011;12539;48.808;11.292;2022-10-17T12:40:49;24.33;;;11.25;;
24401;SDS011;12539;48.808;11.292;2022-10-17T12:45:54;21.15;;;11.18;;
24401;SDS011;12539;48.808;11.292;2022-10-17T12:48:57;20.45;;;10.73;;
24401;SDS011;12539;48.808;11.292;2022-10-17T12:51:26;16.95;;;8.70;;
24401;SDS011;12539;48.808;11.292;2022-10-17T12:53:57;21.58;;;11.10;;
24401;SDS011;12539;48.808;11.292;2022-10-17T12:56:43;18.88;;;11.95;;
24401;SDS011;12539;48.808;11.292;2022-10-17T13:01:37;15.25;;;8.02;;
24401;SDS011;12539;48.808;11.292;2022-10-17T13:04:05;17.45;;;10.68;;
24401;SDS011;12539;48.808;11.292;2022-10-17T13:06:36;18.02;;;10.32;;
24401;SDS011;12539;48.808;11.292;2022-10-17T13:09:14;15.50;;;9.63;;
24401;SDS011;12539;48.808;11.292;2022-10-17T13:11:44;14.18;;;7.78;;
24401;SDS011;12539;48.808;11.292;2022-10-17T13:14:13;14.18;;;9.48;;
24401;SDS011;12539;48.808;11.292;2022-10-17T13:17:00;20.85;;;10.70;;
24401;SDS011;12539;48.808;11.292;2022-10-17T13:19:29;16.77;;;7.32;;
24401;SDS011;12539;48.808;11.292;2022-10-17T13:22:10;16.88;;;10.82;;
24401;SDS011;12539;48.808;11.292;2022-10-17T13:24:40;13.25;;;9.40;;
24401;SDS011;12539;48.808;11.292;2022-10-17T13:27:20;14.98;;;8.57;;
24401;SDS011;12539;48.808;11.292;2022-10-17T13:29:58;13.32;;;7.75;;
24401;SDS011;12539;48.808;11.292;2022-10-17T13:32:25;14.88;;;9.25;;
24401;SDS011;12539;48.808;11.292;2022-10-17T13:35:09;13.20;;;8.02;;
24401;SDS011;12539;48.808;11.292;2022-10-17T13:37:41;12.88;;;8.00;;
24401;SDS011;12539;48.808;11.292;2022-10-17T13:40:19;11.50;;;7.15;;
24401;SDS011;12539;48.808;11.292;2022-10-17T13:42:47;11.05;;;7.40;;
24401;SDS011;12539;48.808;11.292;2022-10-17T13:45:30;12.25;;;8.18;;
24401;SDS011;12539;48.808;11.292;2022-10-17T13:48:02;8.57;;;6.88;;
24401;SDS011;12539;48.808;11.292;2022-10-17T13:58:15;9.30;;;6.30;;
24401;SDS011;12539;48.808;11.292;2022-10-17T14:00:42;9.88;;;6.53;;
24401;SDS011;12539;48.808;11.292;2022-10-17T14:03:08;11.27;;;8.38;;
24401;SDS011;12539;48.808;11.292;2022-10-17T14:05:35;9.43;;;6.50;;
24401;SDS011;12539;48.808;11.292;2022-10-17T14:08:26;7.80;;;6.70;;
24401;SDS011;12539;48.808;11.292;2022-10-17T14:10:52;9.02;;;6.13;;
24401;SDS011;12539;48.808;11.292;2022-10-17T14:13:28;10.60;;;9.40;;
24401;SDS011;12539;48.808;11.292;2022-10-17T14:15:59;10.82;;;8.02;;
24401;SDS011;12539;48.808;11.292;2022-10-17T14:18:27;14.20;;;7.95;;
24401;SDS011;12539;48.808;11.292;2022-10-17T14:20:58;8.75;;;5.68;;
24401;SDS011;12539;48.808;11.292;2022-10-17T14:23:30;9.45;;;7.63;;
24401;SDS011;12539;48.808;11.292;2022-10-17T14:26:06;9.55;;;7.63;;
24401;SDS011;12539;48.808;11.292;2022-10-17T14:28:35;8.55;;;6.18;;
24401;SDS011;12539;48.808;11.292;2022-10-17T14:33:42;6.93;;;5.43;;
24401;SDS011;12539;48.808;11.292;2022-10-17T14:36:13;34.85;;;15.32;;
24401;SDS011;12539;48.808;11.292;2022-10-17T14:38:43;32.55;;;12.88;;
24401;SDS011;12539;48.808;11.292;2022-10-17T14:41:15;20.40;;;10.38;;
24401;SDS011;12539;48.808;11.292;2022-10-17T14:43:55;20.55;;;11.10;;
24401;SDS011;12539;48.808;11.292;2022-10-17T14:46:33;19.35;;;11.27;;
24401;SDS011;12539;48.808;11.292;2022-10-17T14:49:04;20.30;;;10.68;;
24401;SDS011;12539;48.808;11.292;2022-10-17T14:51:32;21.58;;;11.18;;
24401;SDS011;12539;48.808;11.292;2022-10-17T14:54:33;21.38;;;10.38;;
24401;SDS011;12539;48.808;11.292;2022-10-17T14:56:51;17.45;;;10.63;;
24401;SDS011;12539;48.808;11.292;2022-10-17T14:59:18;16.65;;;9.93;;
24401;SDS011;12539;48.808;11.292;2022-10-17T15:01:48;18.45;;;10.05;;
24401;SDS011;12539;48.808;11.292;2022-10-17T15:04:14;17.85;;;10.40;;
24401;SDS011;12539;48.808;11.292;2022-10-17T15:06:40;16.27;;;9.85;;
24401;SDS011;12539;48.808;11.292;2022-10-17T15:09:06;14.65;;;10.00;;
24401;SDS011;12539;48.808;11.292;2022-10-17T15:11:33;15.88;;;8.88;;
24401;SDS011;12539;48.808;11.292;2022-10-17T15:13:59;17.95;;;10.02;;
24401;SDS011;12539;48.808;11.292;2022-10-17T15:16:25;17.13;;;10.52;;
24401;SDS011;12539;48.808;11.292;2022-10-17T15:18:55;15.00;;;9.45;;
24401;SDS011;12539;48.808;11.292;2022-10-17T15:21:22;21.02;;;9.07;;
24401;SDS011;12539;48.808;11.292;2022-10-17T15:23:49;12.00;;;8.35;;
24401;SDS011;12539;48.808;11.292;2022-10-17T15:28:48;13.13;;;10.02;;
24401;SDS011;12539;48.808;11.292;2022-10-17T15:31:18;13.82;;;8.65;;
24401;SDS011;12539;48.808;11.292;2022-10-17T15:33:46;14.57;;;7.70;;
24401;SDS011;12539;48.808;11.292;2022-10-17T15:36:32;11.40;;;10.02;;
24401;SDS011;12539;48.808;11.292;2022-10-17T15:39:02;12.13;;;9.27;;
24401;SDS011;12539;48.808;11.292;2022-10-17T15:41:29;10.57;;;9.13;;
24401;SDS011;12539;48.808;11.292;2022-10-17T15:43:55;11.00;;;8.35;;
24401;SDS011;12539;48.808;11.292;2022-10-17T15:46:22;14.90;;;9.20;;
24401;SDS011;12539;48.808;11.292;2022-10-17T15:48:50;13.48;;;9.00;;
24401;SDS011;12539;48.808;11.292;2022-10-17T15:51:17;13.65;;;8.20;;
24401;SDS011;12539;48.808;11.292;2022-10-17T15:53:43;15.25;;;8.45;;
24401;SDS011;12539;48.808;11.292;2022-10-17T15:58:45;9.93;;;6.95;;
24401;SDS011;12539;48.808;11.292;2022-10-17T16:01:18;12.15;;;8.23;;
24401;SDS011;12539;48.808;11.292;2022-10-17T16:03:48;9.73;;;7.72;;
24401;SDS011;12539;48.808;11.292;2022-10-17T16:06:15;12.02;;;8.23;;
24401;SDS011;12539;48.808;11.292;2022-10-17T16:08:42;12.48;;;7.82;;
24401;SDS011;12539;48.808;11.292;2022-10-17T16:11:10;15.77;;;8.50;;
24401;SDS011;12539;48.808;11.292;2022-10-17T16:13:44;11.48;;;8.50;;
24401;SDS011;12539;48.808;11.292;2022-10-17T16:16:15;10.63;;;8.05;;
24401;SDS011;12539;48.808;11.292;2022-10-17T16:18:41;11.40;;;8.70;;
24401;SDS011;12539;48.808;11.292;2022-10-17T16:21:08;14.18;;;10.57;;
24401;SDS011;12539;48.808;11.292;2022-10-17T16:23:36;10.97;;;8.70;;
24401;SDS011;12539;48.808;11.292;2022-10-17T16:26:02;11.82;;;7.85;;
24401;SDS011;12539;48.808;11.292;2022-10-17T16:28:28;10.43;;;8.52;;
24401;SDS011;12539;48.808;11.292;2022-10-17T16:30:53;12.90;;;8.40;;
24401;SDS011;12539;48.808;11.292;2022-10-17T16:33:19;13.18;;;10.32;;
24401;SDS011;12539;48.808;11.292;2022-10-17T16:35:44;10.52;;;9.35;;
24401;SDS011;12539;48.808;11.292;2022-10-17T16:38:13;11.30;;;9.65;;
24401;SDS011;12539;48.808;11.292;2022-10-17T16:40:38;13.00;;;10.20;;
24401;SDS011;12539;48.808;11.292;2022-10-17T16:43:05;13.70;;;9.25;;
24401;SDS011;12539;48.808;11.292;2022-10-17T16:45:31;15.52;;;10.55;;
24401;SDS011;12539;48.808;11.292;2022-10-17T16:47:56;11.45;;;9.18;;
24401;SDS011;12539;48.808;11.292;2022-10-17T16:50:22;15.88;;;11.93;;
24401;SDS011;12539;48.808;11.292;2022-10-17T16:52:48;17.70;;;12.15;;
24401;SDS011;12539;48.808;11.292;2022-10-17T16:55:14;17.08;;;12.07;;
24401;SDS011;12539;48.808;11.292;2022-10-17T16:57:43;15.23;;;11.48;;
24401;SDS011;12539;48.808;11.292;2022-10-17T17:00:09;15.85;;;11.55;;
24401;SDS011;12539;48.808;11.292;2022-10-17T17:02:36;11.88;;;9.85;;
24401;SDS011;12539;48.808;11.292;2022-10-17T17:05:01;14.70;;;11.48;;